Time;durP1;ratioP1;P1;durP2;ratioP2;P2;SDS_P1;SDS_P2;PMS_P1;PMS_P2;Temp;Humidity;BMP_temperature;BMP_pressure;BME280_temperature;BME280_humidity;BME280_pressure;Samples;Min_cycle;Max_cycle;Signal;HPM_P1;HPM_P2
2021/08/07 00:00:01;;;;;;;7.03;6.33;;;;;;;25.57;62.96;98715.42;1812586;78;21591;-71
2021/08/07 00:02:27;;;;;;;7.00;6.22;;;;;;;25.55;63.00;98724.42;1822149;78;22363;-71
2021/08/07 00:04:54;;;;;;;6.37;5.78;;;;;;;25.54;62.80;98729.63;1818960;78;21044;-71
2021/08/07 00:07:26;;;;;;;6.25;5.70;;;;;;;25.51;62.82;98728.83;1826896;78;20949;-70
2021/08/07 00:09:51;;;;;;;8.03;6.60;;;;;;;25.48;62.81;98738.95;1819179;78;20941;-70
2021/08/07 00:12:18;;;;;;;6.37;5.75;;;;;;;25.44;62.88;98737.88;1823065;78;21107;-70
2021/08/07 00:14:44;;;;;;;6.72;5.67;;;;;;;25.42;63.23;98734.64;1820451;77;21135;-71
2021/08/07 00:17:11;;;;;;;5.90;5.28;;;;;;;25.41;63.23;98742.56;1824650;78;22018;-70
2021/08/07 00:19:37;;;;;;;6.03;5.42;;;;;;;25.40;63.32;98740.40;1820901;77;21536;-70
2021/08/07 00:22:06;;;;;;;6.58;5.80;;;;;;;25.39;63.21;98748.28;1823715;77;21026;-70
2021/08/07 00:24:32;;;;;;;6.20;5.55;;;;;;;25.38;63.28;98749.40;1824631;77;21004;-70
2021/08/07 00:26:58;;;;;;;6.65;5.55;;;;;;;25.37;63.23;98758.64;1806065;78;21101;-71
2021/08/07 00:29:25;;;;;;;6.62;5.33;;;;;;;25.37;63.28;98766.79;1823201;78;21551;-72
2021/08/07 00:31:51;;;;;;;6.40;5.08;;;;;;;25.37;63.22;98777.66;1812320;78;20946;-72
2021/08/07 00:34:18;;;;;;;6.60;5.62;;;;;;;25.35;63.24;98779.86;1812337;77;21040;-72
2021/08/07 00:36:45;;;;;;;7.08;5.87;;;;;;;25.35;63.20;98772.27;1822419;78;21147;-72
2021/08/07 00:39:12;;;;;;;5.65;5.15;;;;;;;25.34;63.11;98767.36;1825271;78;21125;-72
2021/08/07 00:41:40;;;;;;;5.50;5.10;;;;;;;25.33;63.15;98770.39;1826012;77;20990;-71
2021/08/07 00:44:07;;;;;;;5.90;5.30;;;;;;;25.33;63.17;98773.11;1824459;77;20985;-71
2021/08/07 00:46:35;;;;;;;5.83;5.20;;;;;;;25.31;63.21;98767.39;1805807;78;21068;-73
2021/08/07 00:49:03;;;;;;;5.83;5.12;;;;;;;25.30;63.24;98776.66;1800420;77;21493;-71
2021/08/07 00:51:31;;;;;;;5.78;5.28;;;;;;;25.29;63.21;98781.02;1787826;77;21107;-71
2021/08/07 00:54:01;;;;;;;5.72;4.83;;;;;;;25.28;63.29;98788.38;1798095;77;21036;-71
2021/08/07 00:56:28;;;;;;;8.75;5.65;;;;;;;25.27;63.22;98786.74;1802077;78;21073;-70
2021/08/07 00:58:56;;;;;;;5.92;5.30;;;;;;;25.26;63.19;98786.47;1784883;77;21067;-70
2021/08/07 01:01:25;;;;;;;5.17;4.67;;;;;;;25.25;63.25;98784.86;1811532;78;21364;-70
2021/08/07 01:03:53;;;;;;;5.62;5.10;;;;;;;25.24;63.29;98790.02;1808938;77;21840;-71
2021/08/07 01:07:13;;;;;;;5.62;5.05;;;;;;;25.24;63.37;98788.66;1771521;79;21512;-70
2021/08/07 01:09:46;;;;;;;5.20;4.80;;;;;;;25.24;63.62;98783.78;1830320;78;21026;-71
2021/08/07 01:12:48;;;;;;;5.35;4.85;;;;;;;25.21;63.77;98783.79;1807879;78;21474;-71
2021/08/07 01:15:23;;;;;;;7.00;5.12;;;;;;;25.20;63.71;98783.52;1793294;78;21615;-70
2021/08/07 01:17:50;;;;;;;5.15;4.60;;;;;;;25.20;63.75;98788.95;1784564;77;21244;-71
2021/08/07 01:20:25;;;;;;;5.17;4.78;;;;;;;25.18;63.67;98793.87;1813650;78;21084;-69
2021/08/07 01:23:16;;;;;;;5.22;4.67;;;;;;;25.19;63.55;98795.50;1778158;79;21001;-71
2021/08/07 01:25:52;;;;;;;5.70;5.20;;;;;;;25.19;63.54;98793.31;1800860;79;21065;-72
2021/08/07 01:28:21;;;;;;;6.62;5.17;;;;;;;25.19;63.43;98802.30;1798854;78;20997;-71
2021/08/07 01:30:48;;;;;;;5.60;5.12;;;;;;;25.18;63.24;98806.09;1787489;79;22214;-72
2021/08/07 01:33:17;;;;;;;4.87;4.47;;;;;;;25.19;63.06;98810.98;1806069;77;21100;-72
2021/08/07 01:35:44;;;;;;;5.20;4.70;;;;;;;25.18;62.86;98808.81;1810291;79;21058;-72
2021/08/07 01:38:10;;;;;;;4.40;4.00;;;;;;;25.19;62.72;98807.73;1807459;77;20998;-69
2021/08/07 01:40:42;;;;;;;4.53;4.20;;;;;;;25.20;62.54;98803.90;1797544;77;21052;-71
2021/08/07 01:43:13;;;;;;;5.97;4.50;;;;;;;25.21;62.35;98810.17;1805792;77;21105;-71
2021/08/07 01:45:41;;;;;;;5.45;4.28;;;;;;;25.21;62.09;98808.81;1814241;77;21030;-71
2021/08/07 01:48:33;;;;;;;4.72;4.22;;;;;;;25.22;61.86;98809.05;1779956;79;21069;-71
2021/08/07 01:51:16;;;;;;;6.62;4.95;;;;;;;25.22;61.79;98812.61;1811643;77;21533;-70
2021/08/07 01:53:45;;;;;;;4.67;4.23;;;;;;;25.21;61.60;98816.41;1819223;78;21030;-72
2021/08/07 01:56:30;;;;;;;4.92;4.42;;;;;;;25.20;61.36;98820.77;1802781;77;21100;-72
2021/08/07 01:59:01;;;;;;;4.60;4.12;;;;;;;25.19;61.33;98815.88;1822434;77;21053;-72
2021/08/07 02:01:31;;;;;;;4.75;4.35;;;;;;;25.19;61.32;98819.13;1820006;77;21081;-72
2021/08/07 02:03:59;;;;;;;5.20;4.65;;;;;;;25.18;61.14;98817.52;1802081;77;21042;-72
2021/08/07 02:06:28;;;;;;;5.47;4.47;;;;;;;25.18;60.95;98829.20;1816627;77;21080;-70
2021/08/07 02:08:55;;;;;;;4.95;4.45;;;;;;;25.19;61.01;98835.44;1810539;77;21126;-73
2021/08/07 02:11:24;;;;;;;4.62;4.22;;;;;;;25.18;60.63;98835.19;1815154;77;21076;-72
2021/08/07 02:13:52;;;;;;;6.10;4.30;;;;;;;25.19;60.47;98847.66;1808958;78;20997;-74
2021/08/07 02:16:20;;;;;;;5.30;4.00;;;;;;;25.18;60.32;98838.70;1731336;78;20981;-72
2021/08/07 02:18:48;;;;;;;4.30;3.83;;;;;;;25.19;60.15;98839.52;1810563;77;21582;-71
2021/08/07 02:21:15;;;;;;;4.05;3.65;;;;;;;25.18;59.96;98840.63;1819552;77;21171;-72
2021/08/07 02:23:48;;;;;;;4.75;3.77;;;;;;;25.18;59.58;98843.34;1799472;77;21004;-74
2021/08/07 02:26:16;;;;;;;4.72;3.95;;;;;;;25.18;59.63;98853.66;1805785;78;21009;-73
2021/08/07 02:28:44;;;;;;;4.55;3.92;;;;;;;25.18;59.33;98856.38;1796765;78;21448;-72
2021/08/07 02:31:13;;;;;;;4.20;3.80;;;;;;;25.17;59.27;98854.77;1797930;77;21533;-73
2021/08/07 02:33:41;;;;;;;6.35;3.92;;;;;;;25.18;59.21;98851.49;1808564;78;21128;-73
2021/08/07 02:36:10;;;;;;;4.55;3.62;;;;;;;25.17;59.22;98860.73;1823021;77;21048;-73
2021/08/07 02:38:39;;;;;;;4.12;3.72;;;;;;;25.18;59.05;98858.28;1822896;77;21057;-72
2021/08/07 02:41:06;;;;;;;4.12;3.83;;;;;;;25.16;58.76;98855.85;1821480;78;21040;-72
2021/08/07 02:43:35;;;;;;;4.22;3.80;;;;;;;25.15;58.75;98856.97;1802510;78;22064;-73
2021/08/07 02:46:03;;;;;;;4.55;3.67;;;;;;;25.15;58.61;98858.33;1815995;78;21173;-74
2021/08/07 02:48:30;;;;;;;5.10;3.52;;;;;;;25.15;58.68;98864.28;1816691;78;21151;-74
2021/08/07 02:50:59;;;;;;;4.28;3.87;;;;;;;25.15;58.65;98871.08;1793740;79;21053;-74
2021/08/07 02:53:26;;;;;;;5.67;3.65;;;;;;;25.14;58.31;98872.98;1787951;78;21006;-73
2021/08/07 02:55:54;;;;;;;4.78;3.65;;;;;;;25.13;58.04;98870.03;1819431;77;20992;-75
2021/08/07 02:58:24;;;;;;;4.35;3.75;;;;;;;25.12;57.80;98875.19;1802373;77;21014;-73
2021/08/07 03:00:50;;;;;;;4.28;3.87;;;;;;;25.12;57.67;98871.11;1771629;79;21065;-72
2021/08/07 03:03:18;;;;;;;4.15;3.60;;;;;;;25.10;57.50;98868.67;1802006;77;21060;-71
2021/08/07 03:05:45;;;;;;;5.15;4.65;;;;;;;25.09;57.42;98877.10;1800683;79;21033;-72
2021/08/07 03:08:12;;;;;;;4.08;3.42;;;;;;;25.09;57.39;98874.38;1803372;77;21057;-71
2021/08/07 03:10:41;;;;;;;6.35;3.72;;;;;;;25.08;57.30;98885.80;1809496;77;21814;-72
2021/08/07 03:13:09;;;;;;;4.50;4.10;;;;;;;25.08;57.31;98880.93;1794115;79;20970;-72
2021/08/07 03:15:37;;;;;;;9.30;7.53;;;;;;;25.08;57.24;98892.59;1792908;79;21482;-73
2021/08/07 03:18:04;;;;;;;14.15;11.75;;;;;;;25.08;57.07;98901.31;1809641;79;21041;-73
2021/08/07 03:20:32;;;;;;;7.20;6.30;;;;;;;25.07;56.98;98907.83;1797374;77;21444;-73
2021/08/07 03:23:04;;;;;;;6.20;4.95;;;;;;;25.06;56.83;98908.94;1795223;78;21193;-73
2021/08/07 03:25:32;;;;;;;5.47;4.45;;;;;;;25.04;56.68;98908.41;1810235;77;21037;-75
2021/08/07 03:28:01;;;;;;;5.60;3.95;;;;;;;25.03;56.71;98909.48;1810022;79;21553;-74
2021/08/07 03:30:29;;;;;;;4.58;3.62;;;;;;;25.00;56.71;98906.80;1788080;77;21061;-73
2021/08/07 03:32:56;;;;;;;4.83;4.12;;;;;;;24.99;56.83;98899.73;1809568;79;21557;-73
2021/08/07 03:35:23;;;;;;;3.80;3.50;;;;;;;24.99;56.85;98904.36;1817236;78;22953;-75
2021/08/07 03:37:50;;;;;;;4.45;4.05;;;;;;;24.99;56.78;98907.88;1794690;78;21013;-74
2021/08/07 03:40:16;;;;;;;3.95;3.20;;;;;;;24.98;56.70;98910.91;1813851;79;21537;-75
2021/08/07 03:42:45;;;;;;;4.25;3.72;;;;;;;24.98;56.58;98913.63;1798699;77;21053;-74
2021/08/07 03:45:13;;;;;;;4.92;3.60;;;;;;;24.96;56.45;98912.55;1812048;77;21025;-74
2021/08/07 03:47:47;;;;;;;4.62;3.55;;;;;;;24.96;56.41;98922.05;1806413;77;21988;-74
2021/08/07 03:50:14;;;;;;;4.85;3.87;;;;;;;24.95;56.34;98926.41;1792929;77;21073;-74
2021/08/07 03:52:42;;;;;;;4.10;3.60;;;;;;;24.95;56.26;98923.69;1810356;78;21509;-72
2021/08/07 03:55:09;;;;;;;4.33;3.12;;;;;;;24.94;56.24;98921.53;1799520;77;21037;-73
2021/08/07 03:57:55;;;;;;;4.45;4.05;;;;;;;24.96;56.17;98929.40;1802322;79;21036;-75
2021/08/07 04:00:40;;;;;;;9.15;8.03;;;;;;;24.95;56.04;98931.28;1806049;79;21080;-74
2021/08/07 04:03:08;;;;;;;5.85;5.08;;;;;;;24.95;55.97;98933.19;1757259;81;20999;-74
2021/08/07 04:05:36;;;;;;;4.47;4.08;;;;;;;24.95;55.86;98920.97;1738188;82;21113;-74
2021/08/07 04:08:10;;;;;;;5.28;4.45;;;;;;;24.96;55.74;98919.89;1749775;80;21042;-73
2021/08/07 04:10:40;;;;;;;4.50;4.10;;;;;;;24.96;55.53;98920.69;1729571;81;21201;-73
2021/08/07 04:13:07;;;;;;;4.42;4.03;;;;;;;24.98;55.73;98927.20;1771585;79;21172;-73
2021/08/07 04:15:35;;;;;;;4.58;3.45;;;;;;;25.00;55.59;98924.46;1779281;79;20977;-71
2021/08/07 04:18:02;;;;;;;4.12;3.37;;;;;;;25.03;55.40;98917.64;1806080;77;21032;-71
2021/08/07 04:20:29;;;;;;;4.12;3.72;;;;;;;25.05;55.23;98927.16;1805321;77;21489;-72
2021/08/07 04:22:56;;;;;;;3.70;3.40;;;;;;;25.07;54.93;98917.33;1804430;79;21041;-71
2021/08/07 04:25:23;;;;;;;3.83;3.52;;;;;;;25.08;54.52;98929.84;1799741;77;21182;-70
2021/08/07 04:27:50;;;;;;;3.45;2.92;;;;;;;25.08;54.48;98932.00;1812233;79;21013;-73
2021/08/07 04:30:18;;;;;;;4.15;3.55;;;;;;;25.10;54.41;98940.68;1806272;79;21045;-73
2021/08/07 04:32:46;;;;;;;3.80;3.50;;;;;;;25.12;54.71;98940.41;1736253;82;21097;-72
2021/08/07 04:35:12;;;;;;;3.50;3.20;;;;;;;25.14;54.22;98940.13;1718094;80;21597;-72
2021/08/07 04:37:53;;;;;;;3.12;2.92;;;;;;;25.16;53.97;98933.30;1719959;81;21141;-72
2021/08/07 04:40:22;;;;;;;4.45;3.42;;;;;;;25.17;53.78;98936.82;1727217;81;21568;-72
2021/08/07 04:42:49;;;;;;;5.10;3.10;;;;;;;25.16;54.04;98940.09;1805508;77;21049;-71
2021/08/07 04:45:17;;;;;;;3.77;2.90;;;;;;;25.18;53.93;98942.53;1809933;78;21056;-64
2021/08/07 04:48:02;;;;;;;3.52;3.17;;;;;;;25.18;53.81;98939.81;1732599;80;21034;-64
2021/08/07 04:50:33;;;;;;;3.62;3.27;;;;;;;25.20;54.05;98934.91;1757534;80;21204;-63
2021/08/07 04:53:03;;;;;;;6.53;3.35;;;;;;;25.23;54.63;98928.95;1747362;79;21049;-62
2021/08/07 04:55:33;;;;;;;3.47;3.17;;;;;;;25.26;54.59;98942.75;1762167;79;21064;-64
2021/08/07 04:58:00;;;;;;;3.87;2.67;;;;;;;25.30;54.24;98945.72;1797374;78;21567;-62
2021/08/07 05:00:27;;;;;;;3.37;3.12;;;;;;;25.34;53.47;98936.45;1806164;79;21092;-63
2021/08/07 05:02:53;;;;;;;4.80;3.10;;;;;;;25.39;53.23;98933.70;1799174;79;21219;-62
2021/08/07 05:05:20;;;;;;;4.08;3.12;;;;;;;25.42;53.05;98941.27;1782211;77;21045;-63
2021/08/07 05:07:50;;;;;;;4.72;2.83;;;;;;;25.44;52.50;98944.51;1777520;79;21100;-62
2021/08/07 05:10:17;;;;;;;3.47;2.60;;;;;;;25.45;52.02;98942.06;1784562;78;21970;-64
2021/08/07 05:12:44;;;;;;;4.97;2.90;;;;;;;25.47;51.74;98935.79;1784254;79;21632;-63
2021/08/07 05:15:12;;;;;;;4.97;3.10;;;;;;;25.49;52.18;98934.95;1797595;77;21089;-63
2021/08/07 05:17:40;;;;;;;2.85;2.58;;;;;;;25.50;52.35;98929.80;1783038;78;21041;-62
2021/08/07 05:20:11;;;;;;;3.17;2.87;;;;;;;25.52;52.41;98931.67;1782890;77;21033;-63
2021/08/07 05:22:38;;;;;;;2.58;2.37;;;;;;;25.54;52.33;98926.76;1739347;82;21042;-64
2021/08/07 05:25:06;;;;;;;4.35;2.80;;;;;;;25.57;52.46;98932.97;1730989;82;21057;-66
2021/08/07 05:27:34;;;;;;;5.42;2.90;;;;;;;25.58;52.13;98925.64;1743169;82;21077;-65
2021/08/07 05:30:04;;;;;;;3.52;2.67;;;;;;;25.60;52.03;98936.48;1743603;81;21641;-67
2021/08/07 05:32:31;;;;;;;3.33;2.67;;;;;;;25.61;51.75;98947.64;1743571;80;21088;-64
2021/08/07 05:34:58;;;;;;;3.60;3.00;;;;;;;25.63;51.83;98946.80;1739852;80;21090;-65
2021/08/07 05:37:24;;;;;;;3.20;2.90;;;;;;;25.66;51.79;98948.13;1740457;79;21057;-65
2021/08/07 05:39:51;;;;;;;4.45;3.08;;;;;;;25.67;51.78;98932.89;1731211;80;21115;-65
2021/08/07 05:42:18;;;;;;;3.30;2.70;;;;;;;25.70;51.56;98947.25;1731468;81;21062;-66
2021/08/07 05:44:45;;;;;;;3.95;2.47;;;;;;;25.72;51.01;98956.49;1756830;80;21423;-66
2021/08/07 05:47:11;;;;;;;4.05;2.40;;;;;;;25.73;50.76;98949.97;1766163;81;21011;-65
2021/08/07 05:49:39;;;;;;;3.37;2.87;;;;;;;25.73;50.97;98947.78;1761882;80;21318;-66
2021/08/07 05:52:08;;;;;;;2.87;2.67;;;;;;;25.74;50.71;98957.02;1754952;81;21086;-64
2021/08/07 05:54:34;;;;;;;2.62;2.30;;;;;;;25.75;50.71;98955.93;1772323;81;21105;-65
2021/08/07 05:57:01;;;;;;;3.12;2.83;;;;;;;25.79;50.52;98960.25;1756146;80;22183;-65
2021/08/07 05:59:28;;;;;;;4.90;2.65;;;;;;;25.80;50.49;98963.22;1766759;79;21451;-65
2021/08/07 06:01:56;;;;;;;3.35;2.50;;;;;;;25.82;50.11;98966.45;1764530;80;21101;-67
2021/08/07 06:04:23;;;;;;;3.02;2.75;;;;;;;25.80;49.43;98963.22;1745091;80;21132;-66
2021/08/07 06:06:50;;;;;;;2.70;2.50;;;;;;;25.78;49.31;98966.22;1756002;80;21589;-67
2021/08/07 06:09:17;;;;;;;4.67;2.77;;;;;;;25.77;49.56;98961.89;1751720;81;21047;-65
2021/08/07 06:11:44;;;;;;;2.75;2.50;;;;;;;25.77;49.33;98963.78;1766638;81;21109;-66
2021/08/07 06:14:11;;;;;;;3.67;3.10;;;;;;;25.78;49.35;98965.41;1758479;80;21044;-66
2021/08/07 06:16:38;;;;;;;2.90;2.70;;;;;;;25.80;49.43;98967.30;1776140;80;21169;-63
2021/08/07 06:19:07;;;;;;;3.08;2.50;;;;;;;25.83;49.34;98970.26;1771665;80;21514;-63
2021/08/07 06:21:35;;;;;;;3.90;2.55;;;;;;;25.84;48.92;98966.42;1766078;81;20987;-63
2021/08/07 06:24:01;;;;;;;2.52;2.33;;;;;;;25.84;48.80;98962.90;1766654;81;21780;-63
2021/08/07 06:26:31;;;;;;;2.77;2.50;;;;;;;25.86;48.82;98966.97;1745121;81;21070;-64
2021/08/07 06:28:59;;;;;;;2.70;2.47;;;;;;;25.87;48.84;98970.50;1762895;81;21284;-65
2021/08/07 06:31:27;;;;;;;4.10;2.42;;;;;;;25.86;48.67;98960.17;1761052;81;21023;-63
2021/08/07 06:33:54;;;;;;;3.25;2.58;;;;;;;25.89;48.65;98968.30;1757821;81;21545;-63
2021/08/07 06:36:21;;;;;;;5.05;2.70;;;;;;;25.89;48.76;98975.10;1769142;81;21054;-70
2021/08/07 06:38:48;;;;;;;2.55;2.35;;;;;;;25.88;48.06;98981.10;1767866;81;21594;-68
2021/08/07 06:41:14;;;;;;;3.35;2.70;;;;;;;25.82;47.41;98977.34;1758032;81;22343;-70
2021/08/07 06:43:59;;;;;;;3.95;2.70;;;;;;;25.69;47.62;98978.28;1761712;81;21085;-70
2021/08/07 06:46:31;;;;;;;3.05;2.85;;;;;;;25.60;48.15;98981.91;1771845;81;21042;-69
2021/08/07 06:48:57;;;;;;;3.22;2.98;;;;;;;25.53;48.24;98979.51;1758594;81;21058;-70
2021/08/07 06:51:24;;;;;;;3.80;2.70;;;;;;;25.45;48.70;98975.49;1755202;81;21046;-70
2021/08/07 06:53:51;;;;;;;3.90;2.58;;;;;;;25.43;49.05;98978.25;1758849;80;21148;-72
2021/08/07 06:56:18;;;;;;;3.33;3.02;;;;;;;25.43;49.17;98974.17;1763172;81;21077;-68
2021/08/07 06:58:44;;;;;;;4.10;2.87;;;;;;;25.41;49.32;98989.40;1772971;80;20994;-69
2021/08/07 07:01:11;;;;;;;3.20;2.70;;;;;;;25.42;48.79;98983.41;1780430;79;21128;-64
2021/08/07 07:03:38;;;;;;;3.87;3.02;;;;;;;25.37;48.86;98982.91;1788766;79;21533;-65
2021/08/07 07:06:05;;;;;;;3.62;3.22;;;;;;;25.36;49.06;98985.91;1784099;79;21162;-67
2021/08/07 07:08:32;;;;;;;3.70;2.60;;;;;;;25.37;48.87;98981.55;1765450;80;21064;-63
2021/08/07 07:10:59;;;;;;;3.70;3.40;;;;;;;25.38;49.18;98987.79;1791517;79;21369;-65
2021/08/07 07:13:25;;;;;;;3.92;3.15;;;;;;;25.41;49.17;98992.67;1788221;79;21093;-65
2021/08/07 07:15:52;;;;;;;3.33;2.87;;;;;;;25.44;49.13;98990.73;1756028;80;21104;-65
2021/08/07 07:18:18;;;;;;;3.40;3.20;;;;;;;25.46;49.38;98992.64;1760376;80;21105;-66
2021/08/07 07:20:45;;;;;;;3.22;2.92;;;;;;;25.49;49.27;98990.70;1785248;78;21050;-65
2021/08/07 07:23:12;;;;;;;3.47;3.17;;;;;;;25.54;49.09;98992.02;1760644;80;21054;-66
2021/08/07 07:25:40;;;;;;;3.62;3.33;;;;;;;25.57;49.05;98988.71;1773814;79;21052;-64
2021/08/07 07:28:06;;;;;;;4.75;3.30;;;;;;;25.62;48.89;98990.59;1761931;80;21118;-64
2021/08/07 07:30:32;;;;;;;3.77;3.33;;;;;;;25.65;48.62;98997.64;1767651;80;21114;-67
2021/08/07 07:32:59;;;;;;;4.95;3.60;;;;;;;25.66;48.05;99003.33;1754250;80;21486;-63
2021/08/07 07:35:26;;;;;;;3.52;3.22;;;;;;;25.67;47.59;98999.52;1767814;80;21029;-65
2021/08/07 07:37:52;;;;;;;6.03;3.17;;;;;;;25.67;47.54;98992.72;1772327;80;21041;-65
2021/08/07 07:40:19;;;;;;;3.52;3.25;;;;;;;25.71;47.33;99001.13;1768315;79;21082;-64
2021/08/07 07:42:47;;;;;;;4.50;2.98;;;;;;;25.73;47.20;99003.53;1781289;79;21151;-64
2021/08/07 07:45:14;;;;;;;3.85;3.55;;;;;;;25.73;47.34;99004.38;1757529;80;21053;-64
2021/08/07 07:47:42;;;;;;;3.25;2.77;;;;;;;25.76;47.42;98997.54;1774391;79;21128;-63
2021/08/07 07:50:12;;;;;;;3.85;3.17;;;;;;;25.79;47.00;99007.30;1764956;79;21144;-63
2021/08/07 07:52:40;;;;;;;5.15;3.35;;;;;;;25.78;46.61;99015.73;1772026;79;21606;-64
2021/08/07 07:55:08;;;;;;;3.75;3.25;;;;;;;25.77;45.98;99008.66;1787892;78;21131;-63
2021/08/07 07:57:37;;;;;;;3.40;3.15;;;;;;;25.76;46.52;99011.14;1782369;78;21018;-62
2021/08/07 08:00:05;;;;;;;3.20;2.90;;;;;;;25.77;46.53;99013.58;1786340;78;21994;-63
2021/08/07 08:02:34;;;;;;;4.72;3.37;;;;;;;25.79;46.39;99013.30;1785930;80;20978;-63
2021/08/07 08:05:00;;;;;;;4.87;3.20;;;;;;;25.79;46.52;99022.82;1777199;78;21541;-63
2021/08/07 08:07:27;;;;;;;5.03;3.20;;;;;;;25.80;46.16;99023.06;1779550;78;21810;-61
2021/08/07 08:09:53;;;;;;;3.30;3.00;;;;;;;25.82;46.11;99025.75;1777249;78;21444;-63
2021/08/07 08:12:19;;;;;;;4.33;2.65;;;;;;;25.83;45.85;99022.50;1748457;81;21624;-65
2021/08/07 08:14:46;;;;;;;3.47;3.17;;;;;;;25.84;45.28;99020.83;1739026;81;21598;-64
2021/08/07 08:17:12;;;;;;;3.30;3.00;;;;;;;25.85;45.48;99026.55;1741083;81;21524;-64
2021/08/07 08:19:41;;;;;;;3.35;3.05;;;;;;;25.86;45.57;99021.39;1740401;81;22059;-63
2021/08/07 08:22:07;;;;;;;3.08;2.83;;;;;;;25.91;45.83;99021.91;1745357;81;21097;-62
2021/08/07 08:24:34;;;;;;;3.33;3.02;;;;;;;25.94;45.30;99036.31;1739953;81;21030;-63
2021/08/07 08:27:02;;;;;;;3.55;2.85;;;;;;;25.95;45.05;99024.31;1754986;81;21027;-62
2021/08/07 08:29:29;;;;;;;3.00;2.80;;;;;;;25.95;45.04;99016.15;1740994;81;21002;-63
2021/08/07 08:31:57;;;;;;;4.25;3.17;;;;;;;25.95;45.26;99009.34;1736433;81;22372;-62
2021/08/07 08:34:24;;;;;;;3.15;2.85;;;;;;;25.97;45.47;99019.39;1738597;81;21012;-62
2021/08/07 08:36:50;;;;;;;4.65;4.25;;;;;;;25.99;45.33;99025.36;1737206;81;21058;-62
2021/08/07 08:39:16;;;;;;;4.60;4.20;;;;;;;26.03;45.49;99029.68;1737534;81;21086;-63
2021/08/07 08:41:44;;;;;;;4.80;4.22;;;;;;;26.06;44.87;99034.56;1735405;81;21159;-63
2021/08/07 08:44:12;;;;;;;3.87;3.45;;;;;;;26.05;44.66;99031.00;1737036;81;21097;-62
2021/08/07 08:46:38;;;;;;;4.97;4.08;;;;;;;26.04;45.30;99028.03;1747936;81;22197;-63
2021/08/07 08:49:06;;;;;;;4.22;3.83;;;;;;;26.05;45.57;99015.23;1733222;82;21066;-62
2021/08/07 08:51:33;;;;;;;4.00;3.60;;;;;;;26.09;45.74;99028.52;1747383;81;21019;-61
2021/08/07 08:54:02;;;;;;;4.20;3.80;;;;;;;26.11;45.79;99020.08;1746362;81;21561;-63
2021/08/07 08:56:34;;;;;;;3.72;3.35;;;;;;;26.15;46.04;99034.17;1744657;81;21160;-63
2021/08/07 08:58:57;;;;;;;4.20;3.58;;;;;;;26.18;45.58;99032.80;1727854;81;21055;-64
2021/08/07 09:01:24;;;;;;;6.28;4.30;;;;;;;26.19;45.31;99025.72;1751638;81;21609;-63
2021/08/07 09:03:51;;;;;;;9.13;5.78;;;;;;;26.19;45.27;99032.52;1757947;81;21046;-62
2021/08/07 09:06:17;;;;;;;6.05;4.67;;;;;;;26.21;45.71;99016.70;1769108;80;21081;-64
2021/08/07 09:09:09;;;;;;;4.55;4.17;;;;;;;26.24;45.34;99009.87;1772037;79;21038;-63
2021/08/07 09:11:50;;;;;;;4.90;4.50;;;;;;;26.27;45.19;99015.55;1769002;79;21497;-66
2021/08/07 09:14:24;;;;;;;3.47;3.17;;;;;;;26.31;45.66;99022.59;1754668;81;21148;-64
2021/08/07 09:17:06;;;;;;;5.35;3.05;;;;;;;26.35;45.42;99025.52;1746860;81;20993;-65
2021/08/07 09:19:46;;;;;;;4.30;3.17;;;;;;;26.39;44.79;99026.03;1773261;80;21053;-64
2021/08/07 09:22:32;;;;;;;3.12;2.85;;;;;;;26.41;44.66;99018.94;1764904;79;21182;-65
2021/08/07 09:25:16;;;;;;;2.92;2.52;;;;;;;26.43;44.78;99023.54;1778584;79;21002;-64
2021/08/07 09:27:49;;;;;;;3.37;3.00;;;;;;;26.46;44.10;99019.69;1773249;79;21111;-65
2021/08/07 09:30:24;;;;;;;5.75;3.45;;;;;;;26.49;44.32;99021.01;1775298;79;21012;-66
2021/08/07 09:33:09;;;;;;;3.65;3.35;;;;;;;26.51;44.95;99021.53;1766403;79;21610;-65
2021/08/07 09:35:42;;;;;;;3.47;3.17;;;;;;;26.55;45.33;99010.87;1760522;81;21143;-63
2021/08/07 09:38:24;;;;;;;3.40;3.10;;;;;;;26.59;45.27;99022.27;1730336;81;21051;-66
2021/08/07 09:41:04;;;;;;;3.08;2.85;;;;;;;26.64;44.72;99013.24;1756788;79;21064;-66
2021/08/07 09:43:49;;;;;;;3.15;2.90;;;;;;;26.68;44.00;99025.17;1779574;79;21479;-65
2021/08/07 09:46:24;;;;;;;3.95;3.12;;;;;;;26.72;44.37;99028.92;1778293;79;21540;-65
2021/08/07 09:48:54;;;;;;;2.52;2.25;;;;;;;26.78;43.79;99031.03;1757655;79;21164;-66
2021/08/07 09:51:33;;;;;;;2.92;2.72;;;;;;;26.81;43.63;99041.33;1781570;79;21005;-65
2021/08/07 09:54:18;;;;;;;2.50;2.27;;;;;;;26.85;43.72;99044.56;1779724;80;21057;-64
2021/08/07 09:56:54;;;;;;;2.05;1.95;;;;;;;26.91;42.85;99039.86;1779848;79;21371;-66
2021/08/07 09:59:26;;;;;;;2.67;1.80;;;;;;;26.94;42.75;99047.98;1768707;79;21624;-64
2021/08/07 10:01:54;;;;;;;1.92;1.82;;;;;;;26.96;42.14;99044.41;1805149;78;21916;-65
2021/08/07 10:04:23;;;;;;;1.90;1.77;;;;;;;26.97;42.13;99059.67;1811749;78;20983;-65
2021/08/07 10:07:07;;;;;;;2.40;1.87;;;;;;;26.99;41.98;99062.92;1804359;77;20998;-63
2021/08/07 10:09:36;;;;;;;2.47;1.77;;;;;;;27.02;42.01;99059.59;1796727;78;20997;-62
2021/08/07 10:12:08;;;;;;;1.90;1.80;;;;;;;27.04;41.76;99075.92;1802592;77;21048;-64
2021/08/07 10:14:37;;;;;;;1.98;1.80;;;;;;;27.07;41.59;99077.25;1800926;79;21748;-63
2021/08/07 10:17:05;;;;;;;2.10;1.90;;;;;;;27.09;41.35;99075.03;1798152;77;21056;-62
2021/08/07 10:19:32;;;;;;;3.30;1.70;;;;;;;27.11;41.23;99080.20;1815061;78;21604;-64
2021/08/07 10:21:59;;;;;;;2.20;2.00;;;;;;;27.12;41.44;99063.55;1787953;79;21084;-62
2021/08/07 10:24:28;;;;;;;1.72;1.62;;;;;;;27.17;41.32;99079.82;1803737;77;21612;-61
2021/08/07 10:26:57;;;;;;;1.92;1.55;;;;;;;27.21;41.29;99082.21;1794986;79;21155;-61
2021/08/07 10:29:31;;;;;;;2.60;1.65;;;;;;;27.25;41.04;99072.93;1812578;77;21486;-69
2021/08/07 10:32:00;;;;;;;2.27;2.08;;;;;;;27.29;42.24;99069.86;1788443;77;21143;-68
2021/08/07 10:34:27;;;;;;;1.70;1.60;;;;;;;27.34;42.96;99090.81;1825395;78;21093;-68
2021/08/07 10:36:53;;;;;;;1.85;1.60;;;;;;;27.36;43.17;99092.13;1797954;77;21492;-69
2021/08/07 10:39:20;;;;;;;1.80;1.70;;;;;;;27.38;43.26;99085.02;1806304;79;21149;-69
2021/08/07 10:41:47;;;;;;;8.18;1.95;;;;;;;27.39;43.56;99084.73;1781459;79;21060;-67
2021/08/07 10:44:14;;;;;;;3.55;1.80;;;;;;;27.43;43.55;99082.23;1802867;77;21062;-69
2021/08/07 10:46:41;;;;;;;2.37;1.80;;;;;;;27.44;42.87;99090.66;1807372;77;20982;-68
2021/08/07 10:49:09;;;;;;;1.57;1.47;;;;;;;27.45;42.28;99093.09;1805341;77;21026;-69
2021/08/07 10:51:38;;;;;;;3.30;1.40;;;;;;;27.46;41.77;99100.16;1765774;79;21596;-67
2021/08/07 10:54:32;;;;;;;2.75;1.60;;;;;;;27.48;42.21;99099.06;1810797;78;21025;-67
2021/08/07 10:56:59;;;;;;;1.87;1.70;;;;;;;27.52;41.96;99096.80;1788754;77;21006;-68
2021/08/07 10:59:26;;;;;;;2.12;1.70;;;;;;;27.54;42.55;99095.14;1807504;79;21111;-67
2021/08/07 11:01:57;;;;;;;2.35;1.60;;;;;;;27.58;42.39;99098.37;1800360;78;21043;-66
2021/08/07 11:04:28;;;;;;;1.55;1.45;;;;;;;27.62;42.56;99102.13;1812491;79;21107;-67
2021/08/07 11:06:58;;;;;;;4.22;1.90;;;;;;;27.64;42.16;99109.45;1813647;77;21103;-68
2021/08/07 11:09:39;;;;;;;1.90;1.70;;;;;;;27.67;41.61;99102.58;1808562;78;21036;-68
2021/08/07 11:12:16;;;;;;;2.75;1.70;;;;;;;27.71;42.40;99110.42;1787840;79;21477;-68
2021/08/07 11:14:57;;;;;;;1.90;1.65;;;;;;;27.75;41.62;99106.55;1807763;77;21600;-67
2021/08/07 11:17:27;;;;;;;3.27;1.80;;;;;;;27.80;41.47;99114.67;1805898;77;21868;-72
2021/08/07 11:20:08;;;;;;;2.40;2.27;;;;;;;27.86;41.30;99112.11;1804556;77;21003;-69
2021/08/07 11:22:40;;;;;;;2.20;2.00;;;;;;;27.91;41.46;99123.52;1801934;79;21052;-71
2021/08/07 11:25:16;;;;;;;2.05;1.85;;;;;;;27.92;40.63;99107.41;1809085;77;21489;-71
2021/08/07 11:27:58;;;;;;;2.10;1.90;;;;;;;27.90;40.91;99114.53;1806457;77;21002;-70
2021/08/07 11:30:35;;;;;;;2.92;2.00;;;;;;;27.88;40.98;99115.38;1804998;77;21177;-70
2021/08/07 11:33:13;;;;;;;5.55;1.98;;;;;;;27.88;40.97;99112.65;1810441;77;21058;-68
2021/08/07 11:35:45;;;;;;;2.08;1.62;;;;;;;27.88;40.93;99110.45;1813234;79;21525;-68
2021/08/07 11:38:13;;;;;;;2.15;1.72;;;;;;;27.87;41.19;99104.16;1804815;79;21561;-68
2021/08/07 11:40:51;;;;;;;3.65;2.08;;;;;;;27.89;41.33;99108.00;1814200;77;21033;-75
2021/08/07 11:43:23;;;;;;;3.10;1.90;;;;;;;27.92;41.49;99101.39;1812667;79;21184;-74
2021/08/07 11:46:02;;;;;;;6.60;1.80;;;;;;;28.01;41.46;99100.97;1810226;79;21044;-69